createdAt,value
2022-08-27T00:02:11.707Z,7.80
2022-08-27T00:04:38.836Z,7.43
2022-08-27T00:07:06.291Z,8.10
2022-08-27T00:09:33.012Z,7.28
2022-08-27T00:11:59.932Z,7.90
2022-08-27T00:14:28.015Z,7.45
2022-08-27T00:16:55.724Z,7.38
2022-08-27T00:19:22.550Z,7.75
2022-08-27T00:21:49.195Z,8.27
2022-08-27T00:24:15.958Z,7.63
2022-08-27T00:26:43.457Z,7.80
2022-08-27T00:29:10.573Z,9.27
2022-08-27T00:31:37.648Z,8.07
2022-08-27T00:34:05.244Z,7.30
2022-08-27T00:36:34.157Z,7.55
2022-08-27T00:39:00.760Z,7.53
2022-08-27T00:41:27.613Z,7.70
2022-08-27T00:43:57.760Z,8.45
2022-08-27T00:46:30.567Z,7.05
2022-08-27T00:49:02.653Z,7.82
2022-08-27T00:51:30.756Z,8.43
2022-08-27T00:53:58.951Z,7.30
2022-08-27T00:56:29.524Z,8.40
2022-08-27T00:58:56.981Z,8.07
2022-08-27T01:01:29.361Z,7.32
2022-08-27T01:04:00.690Z,7.47
2022-08-27T01:06:33.972Z,7.88
2022-08-27T01:09:12.164Z,7.68
2022-08-27T01:11:39.161Z,8.35
2022-08-27T01:14:06.730Z,8.63
2022-08-27T01:16:38.240Z,7.57
2022-08-27T01:19:09.670Z,8.07
2022-08-27T01:21:45.999Z,8.38
2022-08-27T01:24:24.727Z,7.10
2022-08-27T01:26:51.855Z,8.70
2022-08-27T01:29:18.866Z,8.38
2022-08-27T01:31:45.551Z,7.75
2022-08-27T01:34:12.406Z,8.77
2022-08-27T01:36:39.023Z,8.68
2022-08-27T01:39:05.695Z,7.90
2022-08-27T01:41:32.945Z,8.02
2022-08-27T01:43:59.786Z,7.43
2022-08-27T01:46:28.454Z,8.35
2022-08-27T01:48:55.963Z,8.23
2022-08-27T01:51:22.602Z,8.05
2022-08-27T01:53:49.787Z,8.05
2022-08-27T01:56:16.553Z,8.52
2022-08-27T01:58:44.255Z,8.38
2022-08-27T02:01:14.068Z,8.20
2022-08-27T02:03:41.433Z,8.80
2022-08-27T02:06:10.175Z,7.45
2022-08-27T02:08:37.749Z,8.10
2022-08-27T02:11:05.566Z,9.57
2022-08-27T02:13:32.181Z,8.15
2022-08-27T02:15:58.914Z,8.52
2022-08-27T02:18:25.723Z,8.55
2022-08-27T02:20:52.381Z,8.57
2022-08-27T02:23:19.175Z,8.60
2022-08-27T02:25:48.954Z,7.97
2022-08-27T02:28:16.326Z,8.32
2022-08-27T02:30:43.097Z,7.85
2022-08-27T02:33:09.987Z,8.38
2022-08-27T02:35:39.923Z,9.23
2022-08-27T02:38:07.927Z,9.75
2022-08-27T02:40:36.122Z,9.20
2022-08-27T02:43:03.116Z,7.85
2022-08-27T02:45:29.926Z,8.35
2022-08-27T02:47:56.662Z,9.18
2022-08-27T02:50:27.022Z,7.93
2022-08-27T02:52:54.785Z,8.50
2022-08-27T02:55:22.507Z,9.38
2022-08-27T02:57:49.192Z,8.95
2022-08-27T03:00:19.162Z,8.77
2022-08-27T03:02:45.890Z,8.23
2022-08-27T03:05:13.304Z,8.43
2022-08-27T03:07:40.432Z,8.52
2022-08-27T03:10:08.387Z,9.20
2022-08-27T03:12:36.366Z,9.30
2022-08-27T03:15:05.667Z,10.32
2022-08-27T03:17:51.011Z,7.90
2022-08-27T03:20:18.606Z,9.98
2022-08-27T03:22:45.930Z,9.43
2022-08-27T03:25:12.700Z,8.05
2022-08-27T03:27:39.944Z,9.05
2022-08-27T03:30:13.493Z,9.43
2022-08-27T03:32:40.195Z,9.38
2022-08-27T03:35:07.636Z,8.52
2022-08-27T03:37:35.064Z,8.13
2022-08-27T03:40:02.193Z,8.95
2022-08-27T03:42:28.873Z,8.20
2022-08-27T03:44:55.571Z,8.88
2022-08-27T03:47:23.754Z,9.07
2022-08-27T03:49:50.418Z,9.30
2022-08-27T03:52:17.460Z,8.68
2022-08-27T03:54:44.058Z,8.27
2022-08-27T03:57:11.033Z,7.88
2022-08-27T03:59:38.100Z,9.38
2022-08-27T04:02:05.352Z,9.02
2022-08-27T04:04:32.426Z,9.73
2022-08-27T04:06:59.966Z,9.77
2022-08-27T04:09:26.632Z,8.73
2022-08-27T04:11:53.496Z,8.82
2022-08-27T04:14:26.116Z,8.15
2022-08-27T04:16:56.199Z,10.00
2022-08-27T04:19:27.728Z,9.45
2022-08-27T04:22:02.571Z,7.80
2022-08-27T04:24:31.651Z,8.27
2022-08-27T04:27:02.815Z,8.52
2022-08-27T04:29:29.599Z,8.82
2022-08-27T04:31:57.896Z,8.75
2022-08-27T04:34:24.579Z,9.65
2022-08-27T04:36:51.443Z,9.05
2022-08-27T04:39:20.611Z,9.68
2022-08-27T04:41:50.497Z,9.82
2022-08-27T04:44:17.108Z,9.73
2022-08-27T04:46:46.026Z,7.78
2022-08-27T04:49:17.007Z,8.52
2022-08-27T04:51:43.618Z,9.88
2022-08-27T04:54:10.660Z,9.35
2022-08-27T04:56:37.941Z,9.50
2022-08-27T04:59:06.805Z,9.23
2022-08-27T05:01:33.788Z,8.80
2022-08-27T05:04:00.878Z,10.43
2022-08-27T05:06:28.127Z,9.70
2022-08-27T05:08:55.997Z,9.57
2022-08-27T05:11:25.914Z,9.70
2022-08-27T05:13:52.775Z,9.63
2022-08-27T05:16:22.370Z,9.80
2022-08-27T05:18:51.721Z,9.32
2022-08-27T05:21:20.176Z,9.27
2022-08-27T05:26:16.057Z,8.25
2022-08-27T05:28:42.947Z,9.75
2022-08-27T05:31:11.270Z,10.00
2022-08-27T05:33:39.880Z,10.75
2022-08-27T05:36:07.483Z,11.23
2022-08-27T05:38:34.669Z,10.55
2022-08-27T05:41:06.334Z,9.80
2022-08-27T05:43:33.310Z,10.63
2022-08-27T05:46:05.721Z,10.38
2022-08-27T05:50:49.024Z,9.40
2022-08-27T05:53:15.695Z,10.27
2022-08-27T05:55:45.535Z,10.35
2022-08-27T05:58:33.595Z,11.25
2022-08-27T06:01:10.091Z,10.18
2022-08-27T06:03:38.314Z,10.15
2022-08-27T06:06:11.240Z,10.30
2022-08-27T06:08:38.767Z,10.68
2022-08-27T06:11:07.472Z,10.32
2022-08-27T06:13:35.270Z,10.65
2022-08-27T06:16:08.815Z,11.05
2022-08-27T06:18:38.396Z,10.90
2022-08-27T06:21:06.494Z,9.02
2022-08-27T06:23:34.402Z,10.88
2022-08-27T06:26:05.628Z,9.75
2022-08-27T06:28:32.312Z,10.18
2022-08-27T06:31:06.934Z,11.32
2022-08-27T06:33:34.289Z,10.10
2022-08-27T06:36:06.326Z,12.55
2022-08-27T06:38:34.055Z,10.63
2022-08-27T06:41:04.290Z,10.90
2022-08-27T06:43:31.183Z,11.55
2022-08-27T06:45:57.842Z,9.55
2022-08-27T06:48:24.495Z,10.05
2022-08-27T06:50:51.151Z,11.25
2022-08-27T06:53:17.808Z,10.88
2022-08-27T06:55:51.218Z,11.45
2022-08-27T06:58:19.483Z,11.02
2022-08-27T07:00:48.999Z,11.82
2022-08-27T07:03:15.830Z,12.15
2022-08-27T07:05:42.494Z,11.52
2022-08-27T07:08:10.836Z,11.27
2022-08-27T07:10:38.180Z,11.27
2022-08-27T07:13:05.277Z,10.75
2022-08-27T07:15:32.964Z,10.30
2022-08-27T07:18:01.976Z,11.10
2022-08-27T07:20:31.931Z,11.10
2022-08-27T07:22:58.659Z,11.65
2022-08-27T07:25:26.503Z,11.38
2022-08-27T07:27:53.224Z,11.48
2022-08-27T07:30:19.784Z,12.18
2022-08-27T07:32:47.430Z,11.50
2022-08-27T07:35:14.308Z,12.02
2022-08-27T07:37:43.883Z,10.93
2022-08-27T07:40:14.290Z,11.70
2022-08-27T07:43:01.026Z,11.20
2022-08-27T07:45:29.705Z,9.65
2022-08-27T07:47:56.492Z,10.15
2022-08-27T07:50:23.629Z,10.00
2022-08-27T07:52:51.416Z,10.73
2022-08-27T07:55:18.812Z,10.43
2022-08-27T07:57:45.428Z,9.82
2022-08-27T08:00:13.151Z,9.75
2022-08-27T08:02:42.226Z,9.25
2022-08-27T08:05:10.076Z,10.02
2022-08-27T08:09:51.800Z,10.48
2022-08-27T08:12:18.474Z,11.30
2022-08-27T08:14:57.831Z,11.25
2022-08-27T08:17:25.665Z,11.45
2022-08-27T08:20:17.628Z,12.93
2022-08-27T08:22:40.619Z,10.63
2022-08-27T08:25:07.590Z,11.00
2022-08-27T08:27:41.067Z,11.65
2022-08-27T08:30:09.557Z,11.50
2022-08-27T08:32:36.820Z,11.02
2022-08-27T08:35:04.404Z,11.02
2022-08-27T08:37:31.293Z,10.23
2022-08-27T08:39:57.981Z,9.40
2022-08-27T08:42:42.543Z,8.80
2022-08-27T08:45:19.559Z,8.82
2022-08-27T08:48:06.117Z,8.25
2022-08-27T08:50:56.296Z,7.75
2022-08-27T08:53:41.016Z,7.68
2022-08-27T08:56:15.258Z,7.78
2022-08-27T08:58:48.015Z,8.15
2022-08-27T09:01:18.644Z,8.15
2022-08-27T09:03:53.547Z,8.27
2022-08-27T09:06:38.120Z,7.90
2022-08-27T09:09:16.887Z,8.15
2022-08-27T09:11:52.231Z,8.05
2022-08-27T09:14:40.611Z,8.02
2022-08-27T09:17:12.071Z,8.40
2022-08-27T09:19:38.962Z,8.85
2022-08-27T09:22:28.490Z,8.93
2022-08-27T09:25:10.386Z,7.88
2022-08-27T09:27:41.840Z,8.45
2022-08-27T09:33:01.162Z,6.70
2022-08-27T09:35:34.559Z,7.78
2022-08-27T09:38:02.979Z,7.68
2022-08-27T09:40:40.932Z,7.28
2022-08-27T09:43:29.964Z,7.22
2022-08-27T09:46:05.260Z,6.88
2022-08-27T09:48:37.389Z,6.55
2022-08-27T09:51:13.950Z,6.93
2022-08-27T09:53:50.387Z,6.63
2022-08-27T09:56:30.694Z,6.18
2022-08-27T09:59:03.500Z,7.45
2022-08-27T10:01:33.097Z,6.97
2022-08-27T10:04:15.264Z,7.07
2022-08-27T10:06:50.418Z,6.60
2022-08-27T10:09:33.022Z,7.32
2022-08-27T10:12:06.605Z,7.32
2022-08-27T10:14:45.228Z,7.57
2022-08-27T10:17:37.940Z,6.65
2022-08-27T10:20:40.968Z,6.40
2022-08-27T10:23:14.917Z,6.75
2022-08-27T10:25:58.520Z,6.90
2022-08-27T10:28:40.016Z,6.20
2022-08-27T10:34:03.832Z,6.18
2022-08-27T10:36:49.134Z,6.18
2022-08-27T10:39:38.012Z,6.65
2022-08-27T10:42:04.654Z,7.30
2022-08-27T10:44:50.981Z,6.88
2022-08-27T10:47:50.028Z,7.13
2022-08-27T10:50:35.176Z,6.95
2022-08-27T10:53:08.559Z,7.10
2022-08-27T10:55:45.920Z,7.13
2022-08-27T10:58:34.210Z,6.35
2022-08-27T11:01:17.233Z,6.85
2022-08-27T11:03:50.435Z,6.90
2022-08-27T11:07:03.583Z,7.85
2022-08-27T11:09:36.427Z,7.53
2022-08-27T11:12:14.234Z,7.70
2022-08-27T11:14:54.429Z,8.00
2022-08-27T11:17:32.669Z,7.95
2022-08-27T11:20:04.524Z,7.80
2022-08-27T11:22:42.383Z,8.57
2022-08-27T11:25:26.135Z,8.20
2022-08-27T11:27:56.363Z,9.35
2022-08-27T11:30:38.547Z,8.00
2022-08-27T11:37:58.723Z,7.75
2022-08-27T11:40:51.026Z,8.52
2022-08-27T11:43:22.519Z,9.85
2022-08-27T11:45:58.942Z,8.25
2022-08-27T11:48:29.732Z,10.15
2022-08-27T11:50:59.323Z,9.35
2022-08-27T11:53:47.693Z,8.45
2022-08-27T11:56:36.701Z,8.93
2022-08-27T11:59:21.716Z,7.95
2022-08-27T12:01:51.584Z,8.57
2022-08-27T12:04:32.696Z,8.13
2022-08-27T12:07:05.085Z,8.75
2022-08-27T12:09:51.516Z,8.35
2022-08-27T12:12:42.119Z,8.38
2022-08-27T12:15:17.785Z,9.15
2022-08-27T12:17:58.394Z,8.82
2022-08-27T12:20:43.978Z,7.63
2022-08-27T12:23:42.358Z,7.95
2022-08-27T12:26:42.793Z,8.35
2022-08-27T12:29:18.397Z,9.13
2022-08-27T12:31:48.694Z,8.93
2022-08-27T12:34:28.738Z,9.73
2022-08-27T12:36:56.299Z,8.45
2022-08-27T12:39:28.680Z,8.05
2022-08-27T12:41:55.761Z,8.48
2022-08-27T12:44:27.480Z,8.98
2022-08-27T12:47:13.300Z,8.55
2022-08-27T12:49:55.759Z,7.57
2022-08-27T12:52:56.655Z,6.45
2022-08-27T12:55:51.176Z,7.75
2022-08-27T12:58:36.862Z,7.35
2022-08-27T13:01:45.459Z,7.05
2022-08-27T13:04:33.793Z,7.97
2022-08-27T13:07:00.481Z,8.35
2022-08-27T13:09:33.545Z,7.90
2022-08-27T13:12:02.640Z,6.57
2022-08-27T13:14:36.767Z,6.63
2022-08-27T13:17:09.081Z,6.63
2022-08-27T13:19:44.075Z,6.75
2022-08-27T13:22:10.833Z,6.47
2022-08-27T13:24:49.712Z,7.80
2022-08-27T13:27:16.484Z,7.18
2022-08-27T13:29:43.697Z,7.75
2022-08-27T13:32:14.083Z,7.13
2022-08-27T13:34:41.531Z,6.80
2022-08-27T13:37:24.680Z,8.10
2022-08-27T13:39:56.658Z,6.97
2022-08-27T13:42:25.153Z,6.88
2022-08-27T13:44:56.523Z,6.63
2022-08-27T13:47:26.218Z,7.45
2022-08-27T13:50:13.858Z,7.35
2022-08-27T13:53:04.638Z,7.00
2022-08-27T13:55:33.323Z,6.40
2022-08-27T13:58:00.452Z,7.40
2022-08-27T14:00:33.495Z,6.93
2022-08-27T14:03:03.594Z,7.30
2022-08-27T14:05:33.878Z,6.70
2022-08-27T14:08:13.803Z,7.28
2022-08-27T14:10:45.071Z,6.07
2022-08-27T14:13:23.672Z,6.70
2022-08-27T14:15:55.652Z,6.20
2022-08-27T14:18:57.899Z,6.88
2022-08-27T14:21:22.652Z,6.35
2022-08-27T14:23:49.528Z,6.70
2022-08-27T14:26:17.389Z,6.78
2022-08-27T14:28:45.034Z,7.53
2022-08-27T14:31:13.325Z,6.95
2022-08-27T14:33:40.240Z,7.18
2022-08-27T14:36:08.219Z,6.93
2022-08-27T14:38:37.654Z,6.97
2022-08-27T14:41:07.639Z,6.55
2022-08-27T14:43:34.733Z,7.65
2022-08-27T14:46:02.871Z,7.38
2022-08-27T14:48:33.528Z,7.00
2022-08-27T14:51:09.331Z,7.33
2022-08-27T14:55:59.368Z,7.43
2022-08-27T14:58:26.147Z,7.30
2022-08-27T15:00:55.316Z,6.63
2022-08-27T15:03:25.461Z,6.85
2022-08-27T15:05:56.190Z,7.88
2022-08-27T15:08:27.574Z,7.03
2022-08-27T15:10:57.993Z,7.53
2022-08-27T15:13:24.868Z,6.35
2022-08-27T15:15:52.623Z,7.25
2022-08-27T15:18:20.003Z,7.03
2022-08-27T15:20:47.208Z,6.72
2022-08-27T15:23:15.546Z,7.30
2022-08-27T15:25:45.090Z,7.15
2022-08-27T15:28:11.968Z,8.05
2022-08-27T15:33:06.025Z,10.82
2022-08-27T15:35:32.881Z,10.00
2022-08-27T15:38:00.728Z,12.10
2022-08-27T15:40:30.842Z,11.13
2022-08-27T15:43:02.129Z,9.90
2022-08-27T15:45:31.495Z,10.02
2022-08-27T15:47:59.666Z,9.77
2022-08-27T15:50:28.328Z,9.98
2022-08-27T15:52:58.266Z,9.35
2022-08-27T15:55:28.900Z,9.75
2022-08-27T15:57:55.601Z,8.97
2022-08-27T16:00:25.659Z,8.98
2022-08-27T16:02:52.840Z,9.43
2022-08-27T16:05:22.660Z,9.82
2022-08-27T16:10:11.892Z,9.15
2022-08-27T16:12:38.469Z,8.63
2022-08-27T16:15:05.822Z,8.88
2022-08-27T16:17:33.167Z,10.00
2022-08-27T16:20:00.185Z,10.00
2022-08-27T16:22:26.856Z,8.85
2022-08-27T16:24:53.456Z,8.82
2022-08-27T16:27:20.445Z,9.23
2022-08-27T16:29:47.008Z,9.05
2022-08-27T16:32:17.244Z,8.10
2022-08-27T16:34:47.277Z,8.93
2022-08-27T16:37:13.967Z,8.90
2022-08-27T16:39:44.053Z,9.23
2022-08-27T16:42:10.684Z,8.57
2022-08-27T16:44:38.289Z,8.73
2022-08-27T16:47:06.201Z,7.63
2022-08-27T16:49:51.521Z,8.80
2022-08-27T16:52:20.300Z,8.25
2022-08-27T16:54:46.998Z,7.75
2022-08-27T16:57:13.689Z,8.68
2022-08-27T16:59:42.584Z,7.53
2022-08-27T17:02:17.563Z,8.30
2022-08-27T17:04:48.017Z,8.82
2022-08-27T17:07:25.829Z,8.23
2022-08-27T17:09:52.788Z,9.52
2022-08-27T17:12:27.193Z,8.35
2022-08-27T17:14:55.799Z,9.35
2022-08-27T17:17:22.332Z,9.10
2022-08-27T17:19:48.892Z,9.75
2022-08-27T17:22:15.640Z,10.85
2022-08-27T17:24:42.277Z,11.55
2022-08-27T17:27:09.161Z,11.50
2022-08-27T17:29:36.862Z,9.57
2022-08-27T17:32:06.832Z,11.38
2022-08-27T17:34:33.457Z,11.95
2022-08-27T17:37:00.560Z,11.45
2022-08-27T17:39:30.497Z,11.45
2022-08-27T17:41:57.324Z,11.68
2022-08-27T17:44:25.872Z,11.32
2022-08-27T17:46:54.531Z,12.27
2022-08-27T17:49:21.637Z,12.63
2022-08-27T17:51:49.969Z,12.25
2022-08-27T17:54:21.125Z,13.65
2022-08-27T17:56:47.695Z,12.88
2022-08-27T17:59:14.337Z,14.13
2022-08-27T18:01:41.339Z,14.57
2022-08-27T18:04:08.540Z,15.68
2022-08-27T18:06:35.253Z,16.85
2022-08-27T18:09:03.668Z,14.63
2022-08-27T18:11:30.300Z,13.40
2022-08-27T18:14:04.075Z,13.75
2022-08-27T18:16:32.179Z,12.18
2022-08-27T18:18:58.759Z,13.98
2022-08-27T18:21:26.197Z,13.07
2022-08-27T18:23:53.816Z,12.50
2022-08-27T18:26:23.234Z,13.18
2022-08-27T18:28:49.980Z,12.60
2022-08-27T18:31:19.805Z,13.13
2022-08-27T18:33:47.032Z,12.77
2022-08-27T18:36:14.976Z,12.55
2022-08-27T18:38:42.915Z,14.38
2022-08-27T18:41:09.589Z,16.48
2022-08-27T18:43:36.521Z,13.75
2022-08-27T18:46:04.560Z,14.23
2022-08-27T18:48:32.448Z,13.68
2022-08-27T18:51:01.604Z,12.57
2022-08-27T18:53:32.912Z,13.52
2022-08-27T18:56:00.783Z,10.77
2022-08-27T18:58:27.944Z,8.82
2022-08-27T19:00:58.887Z,8.90
2022-08-27T19:03:29.319Z,8.60
2022-08-27T19:05:56.294Z,8.23
2022-08-27T19:08:23.893Z,8.80
2022-08-27T19:13:13.164Z,9.70
2022-08-27T19:15:44.552Z,9.45
2022-08-27T19:18:11.649Z,9.60
2022-08-27T19:20:38.772Z,10.18
2022-08-27T19:23:05.366Z,11.25
2022-08-27T19:25:32.384Z,10.30
2022-08-27T19:27:59.215Z,10.30
2022-08-27T19:30:25.886Z,9.82
2022-08-27T19:32:53.887Z,11.57
2022-08-27T19:35:21.717Z,9.85
2022-08-27T19:37:53.025Z,12.55
2022-08-27T19:40:21.916Z,13.70
2022-08-27T19:42:49.575Z,9.90
2022-08-27T19:47:36.411Z,10.40
2022-08-27T19:50:04.083Z,11.70
2022-08-27T19:52:30.633Z,10.48
2022-08-27T19:55:13.191Z,10.82
2022-08-27T19:57:41.171Z,9.80
2022-08-27T20:00:09.383Z,9.60
2022-08-27T20:02:38.855Z,11.03
2022-08-27T20:07:35.065Z,11.65
2022-08-27T20:10:08.569Z,10.63
2022-08-27T20:12:36.776Z,11.93
2022-08-27T20:15:06.173Z,11.80
2022-08-27T20:17:33.465Z,12.77
2022-08-27T20:20:00.605Z,11.52
2022-08-27T20:22:27.915Z,11.60
2022-08-27T20:24:54.579Z,13.18
2022-08-27T20:27:21.254Z,14.60
2022-08-27T20:29:47.845Z,14.52
2022-08-27T20:32:14.621Z,13.15
2022-08-27T20:34:41.489Z,11.93
2022-08-27T20:37:08.208Z,10.98
2022-08-27T20:39:34.888Z,9.80
2022-08-27T20:42:01.987Z,10.35
2022-08-27T20:44:29.151Z,10.45
2022-08-27T20:46:59.188Z,10.25
2022-08-27T20:49:27.902Z,11.82
2022-08-27T20:52:03.972Z,7.68
2022-08-27T20:54:32.203Z,7.05
2022-08-27T20:56:58.871Z,6.03
2022-08-27T20:59:44.964Z,7.28
2022-08-27T21:02:14.033Z,6.15
2022-08-27T21:04:45.913Z,5.07
2022-08-27T21:09:55.962Z,6.15
2022-08-27T21:12:24.548Z,6.05
2022-08-27T21:14:51.179Z,6.20
2022-08-27T21:17:25.234Z,6.57
2022-08-27T21:19:52.468Z,7.85
2022-08-27T21:22:19.939Z,7.35
2022-08-27T21:24:47.554Z,7.90
2022-08-27T21:27:18.366Z,8.23
2022-08-27T21:32:03.648Z,9.20
2022-08-27T21:34:31.048Z,11.32
2022-08-27T21:36:58.297Z,11.50
2022-08-27T21:39:24.952Z,10.85
2022-08-27T21:41:51.525Z,11.23
2022-08-27T21:44:18.181Z,10.45
2022-08-27T21:46:44.788Z,11.80
2022-08-27T21:49:11.412Z,12.60
2022-08-27T21:51:37.976Z,11.80
2022-08-27T21:54:04.841Z,11.77
2022-08-27T21:56:31.680Z,12.18
2022-08-27T21:58:58.236Z,11.25
2022-08-27T22:01:24.875Z,12.63
2022-08-27T22:03:51.908Z,13.27
2022-08-27T22:06:19.397Z,11.15
2022-08-27T22:08:46.091Z,13.43
2022-08-27T22:11:13.365Z,12.13
2022-08-27T22:13:40.472Z,13.25
2022-08-27T22:16:07.928Z,12.93
2022-08-27T22:18:34.646Z,13.85
2022-08-27T22:21:02.579Z,14.13
2022-08-27T22:23:29.176Z,14.60
2022-08-27T22:28:19.064Z,13.07
2022-08-27T22:30:46.247Z,13.02
2022-08-27T22:33:13.434Z,13.25
2022-08-27T22:35:40.081Z,14.55
2022-08-27T22:38:07.585Z,14.57
2022-08-27T22:40:36.361Z,14.23
2022-08-27T22:43:04.115Z,13.88
2022-08-27T22:45:31.057Z,13.98
2022-08-27T22:47:57.849Z,15.25
2022-08-27T22:50:24.960Z,15.65
2022-08-27T22:52:52.057Z,15.85
2022-08-27T22:55:21.551Z,15.32
2022-08-27T22:57:53.646Z,15.60
2022-08-27T23:00:27.400Z,14.55
2022-08-27T23:02:54.527Z,15.65
2022-08-27T23:05:22.025Z,15.63
2022-08-27T23:07:48.789Z,15.98
2022-08-27T23:10:18.752Z,17.25
2022-08-27T23:12:46.659Z,14.18
2022-08-27T23:15:15.424Z,16.40
2022-08-27T23:17:42.089Z,17.35
2022-08-27T23:22:37.552Z,15.45
2022-08-27T23:25:24.790Z,15.95
2022-08-27T23:27:51.347Z,14.48
2022-08-27T23:30:18.330Z,16.27
2022-08-27T23:32:48.290Z,15.27
2022-08-27T23:35:21.755Z,16.65
2022-08-27T23:40:17.715Z,16.85
2022-08-27T23:42:45.136Z,16.92
2022-08-27T23:45:16.033Z,17.23
2022-08-27T23:47:43.058Z,17.20
2022-08-27T23:50:10.932Z,17.15
2022-08-27T23:52:38.699Z,14.52
2022-08-27T23:55:06.565Z,14.32
2022-08-27T23:57:33.256Z,15.43
2022-08-27T23:59:59.915Z,15.30
